Time;durP1;ratioP1;P1;durP2;ratioP2;P2;SDS_P1;SDS_P2;PMS_P1;PMS_P2;Temp;Humidity;BMP_temperature;BMP_pressure;BME280_temperature;BME280_humidity;BME280_pressure;Samples;Min_cycle;Max_cycle;Signal;HPM_P1;HPM_P2
2022/01/21 00:01:18;;;;;;;7.40;3.40;;;;;;;-2.72;68.66;99867.42;84761;1326;25430;-75
2022/01/21 00:03:27;;;;;;;6.10;3.40;;;;;;;-2.74;68.73;99864.67;84721;1326;25471;-80
2022/01/21 00:05:36;;;;;;;8.20;3.80;;;;;;;-2.77;68.38;99865.33;84075;1327;1003339;-80
2022/01/21 00:07:45;;;;;;;6.10;3.00;;;;;;;-2.79;68.63;99873.00;84799;1322;22603;-75
2022/01/21 00:09:54;;;;;;;5.50;3.80;;;;;;;-2.81;68.57;99871.80;84753;1325;22601;-76
2022/01/21 00:12:03;;;;;;;6.60;3.40;;;;;;;-2.83;68.72;99879.63;84054;1326;1003035;-76
2022/01/21 00:14:12;;;;;;;3.90;2.80;;;;;;;-2.85;68.52;99885.42;84753;1326;25331;-76
2022/01/21 00:16:22;;;;;;;9.50;3.20;;;;;;;-2.87;68.54;99883.18;84746;1325;22669;-76
2022/01/21 00:18:35;;;;;;;8.70;2.80;;;;;;;-2.86;68.59;99889.34;84770;1325;22614;-75
2022/01/21 00:30:34;;;;;;;7.80;4.10;;;;;;;-2.70;68.62;99907.91;84768;1325;24064;-81
2022/01/21 00:32:47;;;;;;;8.00;4.60;;;;;;;-2.69;68.73;99913.04;84678;1326;24370;-80
2022/01/21 00:34:56;;;;;;;7.40;4.60;;;;;;;-2.68;68.60;99911.50;84061;1326;1003145;-81
2022/01/21 00:37:08;;;;;;;6.00;3.00;;;;;;;-2.66;68.68;99909.83;84679;1326;23969;-76
2022/01/21 00:39:21;;;;;;;8.10;4.20;;;;;;;-2.64;68.61;99910.52;83994;1329;1003485;-75
2022/01/21 00:41:40;;;;;;;8.60;3.20;;;;;;;-2.63;68.58;99915.64;83983;1325;1003766;-75
2022/01/21 00:43:49;;;;;;;9.20;4.20;;;;;;;-2.63;68.41;99910.34;84802;1321;22947;-80
2022/01/21 00:45:58;;;;;;;7.20;3.60;;;;;;;-2.66;68.02;99910.16;84783;1329;22609;-80
2022/01/21 00:48:08;;;;;;;6.80;4.50;;;;;;;-2.68;68.28;99908.60;84729;1326;23973;-76
2022/01/21 00:50:20;;;;;;;12.50;3.90;;;;;;;-2.71;67.95;99909.61;84676;1326;22913;-76
2022/01/21 00:52:29;;;;;;;7.30;3.40;;;;;;;-2.74;67.92;99911.46;84730;1326;22746;-80
2022/01/21 00:54:40;;;;;;;8.60;4.00;;;;;;;-2.77;68.21;99914.34;84678;1327;27026;-80
2022/01/21 00:56:54;;;;;;;7.10;3.60;;;;;;;-2.80;67.92;99907.83;84034;1323;1003068;-80
2022/01/21 00:59:06;;;;;;;13.40;4.20;;;;;;;-2.85;67.83;99909.83;84764;1326;23981;-76
2022/01/21 01:01:18;;;;;;;10.30;4.40;;;;;;;-2.89;67.93;99906.03;84677;1330;22594;-76
2022/01/21 01:03:29;;;;;;;7.70;3.00;;;;;;;-2.92;67.85;99906.69;84764;1326;25447;-76
2022/01/21 01:05:39;;;;;;;6.20;3.80;;;;;;;-2.95;67.79;99902.22;84744;1326;22650;-76
2022/01/21 01:07:51;;;;;;;10.70;3.50;;;;;;;-2.98;67.98;99905.44;84082;1323;1003136;-81
2022/01/21 01:10:04;;;;;;;10.30;3.70;;;;;;;-3.02;68.08;99906.60;84770;1326;22587;-82
2022/01/21 01:12:21;;;;;;;5.20;3.10;;;;;;;-3.04;68.05;99904.18;84062;1326;1003605;-81
2022/01/21 01:22:03;;;;;;;20.50;6.20;;;;;;;-3.01;67.77;99901.83;84625;1330;25281;-79
2022/01/21 01:29:14;;;;;;;25.10;9.50;;;;;;;-2.92;67.68;99903.27;84687;1327;22592;-78
2022/01/21 01:31:23;;;;;;;21.40;10.40;;;;;;;-2.90;67.52;99907.40;84692;1325;24224;-77
2022/01/21 01:33:39;;;;;;;14.20;5.40;;;;;;;-2.89;67.76;99905.36;84679;1326;25367;-81
2022/01/21 01:35:51;;;;;;;10.00;4.20;;;;;;;-2.87;67.77;99907.92;84746;1321;24260;-81
2022/01/21 01:38:25;;;;;;;7.00;3.60;;;;;;;-2.84;67.82;99900.95;84758;1325;24037;-76
2022/01/21 01:40:40;;;;;;;6.60;3.60;;;;;;;-2.82;67.58;99897.55;84702;1326;22587;-76
2022/01/21 01:50:13;;;;;;;28.80;11.40;;;;;;;-2.78;67.39;99895.02;84744;1321;22540;-80
2022/01/21 01:52:22;;;;;;;26.50;10.90;;;;;;;-2.78;67.35;99890.94;84795;1326;22622;-76
2022/01/21 01:54:32;;;;;;;16.70;6.30;;;;;;;-2.77;67.08;99896.57;84751;1323;22612;-75
2022/01/21 01:56:43;;;;;;;10.20;4.30;;;;;;;-2.76;67.30;99894.52;84790;1326;22949;-75
2022/01/21 01:58:52;;;;;;;11.70;5.80;;;;;;;-2.75;67.27;99887.90;84775;1326;22620;-75
2022/01/21 02:01:01;;;;;;;9.60;3.10;;;;;;;-2.72;67.28;99891.48;84757;1325;22611;-75
2022/01/21 02:03:13;;;;;;;8.80;4.00;;;;;;;-2.68;67.19;99889.98;84691;1330;22779;-81
2022/01/21 02:05:22;;;;;;;4.50;2.90;;;;;;;-2.63;67.35;99886.61;84781;1326;23901;-81
2022/01/21 02:07:33;;;;;;;6.30;3.40;;;;;;;-2.60;67.05;99888.02;84693;1324;24234;-81
2022/01/21 02:09:42;;;;;;;5.80;2.30;;;;;;;-2.57;66.71;99888.36;84753;1325;25444;-82
2022/01/21 02:11:57;;;;;;;7.00;4.10;;;;;;;-2.55;66.96;99885.48;84772;1324;22723;-79
2022/01/21 02:14:09;;;;;;;5.10;2.60;;;;;;;-2.54;66.77;99887.36;84051;1325;1002893;-80
2022/01/21 02:16:33;;;;;;;4.10;2.30;;;;;;;-2.54;67.08;99883.10;84765;1324;22904;-76
2022/01/21 02:21:35;;;;;;;5.10;2.20;;;;;;;-2.53;66.98;99878.48;84741;1330;22637;-77
2022/01/21 02:23:48;;;;;;;6.00;3.20;;;;;;;-2.54;66.68;99883.44;84725;1320;22688;-75
2022/01/21 02:25:58;;;;;;;6.30;3.20;;;;;;;-2.55;66.76;99875.06;84757;1327;24318;-75
2022/01/21 02:28:14;;;;;;;3.70;2.40;;;;;;;-2.56;66.65;99873.17;84716;1326;22824;-76
2022/01/21 02:30:25;;;;;;;9.50;2.10;;;;;;;-2.61;66.59;99875.53;84774;1326;22627;-76
2022/01/21 02:32:37;;;;;;;8.10;2.30;;;;;;;-2.66;66.66;99875.15;84713;1320;22705;-79
2022/01/21 02:34:49;;;;;;;9.40;3.70;;;;;;;-2.72;66.64;99871.86;84790;1326;25303;-80
2022/01/21 02:36:59;;;;;;;3.30;1.60;;;;;;;-2.78;66.71;99870.79;84766;1326;22651;-76
2022/01/21 02:39:08;;;;;;;5.50;1.60;;;;;;;-2.83;66.95;99875.70;84699;1327;23031;-75
2022/01/21 02:41:17;;;;;;;5.00;2.40;;;;;;;-2.89;66.85;99886.91;83882;1326;1249618;-77
2022/01/21 02:43:27;;;;;;;4.20;2.10;;;;;;;-2.92;67.23;99890.64;84714;1326;22626;-75
2022/01/21 02:45:37;;;;;;;5.40;2.90;;;;;;;-2.94;67.23;99895.06;84087;1329;1003475;-77
2022/01/21 02:47:45;;;;;;;;;;;;;;;-2.96;67.36;99890.45;84836;1326;22671;-80
2022/01/21 02:49:58;;;;;;;5.20;1.80;;;;;;;-3.00;67.57;99892.80;84771;1325;22604;-80
2022/01/21 02:52:08;;;;;;;4.60;1.90;;;;;;;-3.02;67.68;99890.73;84834;1324;23979;-79
2022/01/21 02:54:17;;;;;;;2.70;1.50;;;;;;;-3.04;67.64;99891.90;84781;1326;25331;-79
2022/01/21 02:56:26;;;;;;;2.20;1.30;;;;;;;-3.07;67.55;99886.92;84777;1326;22972;-79
2022/01/21 02:58:39;;;;;;;5.00;2.30;;;;;;;-3.08;67.50;99898.35;84814;1326;22704;-76
2022/01/21 03:00:49;;;;;;;4.80;1.00;;;;;;;-3.10;67.58;99887.58;84708;1327;25420;-76
2022/01/21 03:03:00;;;;;;;3.30;1.70;;;;;;;-3.10;67.67;99891.17;84799;1325;25459;-77
2022/01/21 03:05:16;;;;;;;2.40;1.40;;;;;;;-3.11;67.72;99891.66;84759;1325;23839;-76
2022/01/21 03:07:25;;;;;;;5.80;2.10;;;;;;;-3.12;67.72;99900.54;84781;1326;22617;-81
2022/01/21 03:09:34;;;;;;;3.80;1.80;;;;;;;-3.14;67.83;99896.26;84773;1326;22603;-80
2022/01/21 03:11:43;;;;;;;5.00;1.50;;;;;;;-3.15;68.09;99889.60;84793;1325;22669;-81
2022/01/21 03:13:53;;;;;;;3.50;2.10;;;;;;;-3.14;67.91;99897.27;84821;1322;22586;-76
2022/01/21 03:16:02;;;;;;;6.50;2.10;;;;;;;-3.13;68.15;99889.95;84758;1325;22669;-76
2022/01/21 03:18:11;;;;;;;6.90;1.50;;;;;;;-3.13;68.28;99883.80;84780;1327;24083;-75
2022/01/21 03:20:20;;;;;;;3.40;2.00;;;;;;;-3.13;68.19;99883.80;84779;1326;25310;-75
2022/01/21 03:22:32;;;;;;;3.90;1.90;;;;;;;-3.16;68.22;99887.88;84744;1326;22714;-80
2022/01/21 03:24:41;;;;;;;4.10;2.60;;;;;;;-3.18;68.13;99893.82;84061;1330;1003677;-80
2022/01/21 03:26:54;;;;;;;5.80;2.40;;;;;;;-3.22;68.34;99890.36;84765;1326;24335;-81
2022/01/21 03:29:04;;;;;;;3.70;1.70;;;;;;;-3.26;68.40;99880.10;84778;1319;25448;-75
2022/01/21 03:31:16;;;;;;;5.10;2.10;;;;;;;-3.28;68.53;99880.92;84795;1326;22592;-75
2022/01/21 03:33:26;;;;;;;3.00;2.00;;;;;;;-3.32;68.71;99895.04;84778;1326;25337;-75
2022/01/21 03:35:35;;;;;;;5.50;3.10;;;;;;;-3.31;68.94;99905.96;84779;1325;24187;-75
2022/01/21 03:37:44;;;;;;;5.30;2.40;;;;;;;-3.29;68.97;99900.20;84805;1326;22609;-80
2022/01/21 03:39:53;;;;;;;6.20;1.80;;;;;;;-3.25;69.16;99903.30;84764;1326;25564;-80
2022/01/21 03:42:02;;;;;;;4.70;2.40;;;;;;;-3.20;69.20;99894.98;84781;1327;22923;-79
2022/01/21 03:44:11;;;;;;;4.40;2.50;;;;;;;-3.14;69.45;99898.48;84779;1325;24167;-80
2022/01/21 03:46:20;;;;;;;4.80;2.50;;;;;;;-3.05;69.26;99906.57;84768;1325;25102;-81
2022/01/21 03:48:29;;;;;;;5.60;2.30;;;;;;;-2.99;69.39;99903.56;84771;1324;22587;-79
2022/01/21 03:50:38;;;;;;;6.10;2.70;;;;;;;-2.92;69.20;99906.85;84786;1326;22630;-80
2022/01/21 03:52:47;;;;;;;3.10;1.70;;;;;;;-2.87;69.23;99900.92;84819;1326;22607;-77
2022/01/21 03:54:59;;;;;;;6.00;2.20;;;;;;;-2.84;69.19;99893.45;84760;1324;22742;-76
2022/01/21 03:57:12;;;;;;;5.30;1.40;;;;;;;-2.82;69.14;99892.42;84815;1326;22600;-78
2022/01/21 03:59:24;;;;;;;5.70;3.00;;;;;;;-2.80;68.98;99898.08;84782;1321;22584;-82
2022/01/21 04:01:35;;;;;;;5.60;2.20;;;;;;;-2.81;69.00;99895.51;84763;1317;22578;-80
2022/01/21 04:03:45;;;;;;;5.10;1.70;;;;;;;-2.81;69.16;99897.55;84819;1328;22608;-80
2022/01/21 04:05:53;;;;;;;10.20;2.20;;;;;;;-2.81;69.07;99910.19;84776;1325;25328;-82
2022/01/21 04:08:06;;;;;;;2.70;1.60;;;;;;;-2.81;69.26;99911.04;84778;1326;22643;-79
2022/01/21 04:10:15;;;;;;;9.70;2.90;;;;;;;-2.81;69.25;99909.35;84075;1322;1002940;-80
2022/01/21 04:12:24;;;;;;;5.00;1.70;;;;;;;-2.80;69.24;99914.49;84713;1326;22559;-75
2022/01/21 04:14:37;;;;;;;3.20;1.90;;;;;;;-2.78;69.38;99913.13;84768;1325;22987;-75
2022/01/21 04:16:49;;;;;;;3.30;1.80;;;;;;;-2.75;69.46;99916.41;84713;1326;24842;-76
2022/01/21 04:19:01;;;;;;;3.20;1.60;;;;;;;-2.70;69.56;99912.70;84766;1326;26639;-76
2022/01/21 04:21:13;;;;;;;5.50;2.40;;;;;;;-2.64;69.43;99915.30;84762;1326;23954;-75
2022/01/21 04:23:26;;;;;;;5.60;2.40;;;;;;;-2.58;69.49;99918.06;84779;1326;22687;-76
2022/01/21 04:25:35;;;;;;;4.90;2.20;;;;;;;-2.52;69.44;99914.52;84775;1325;23979;-76
2022/01/21 04:27:44;;;;;;;6.40;2.10;;;;;;;-2.47;69.42;99916.45;84781;1324;22598;-79
2022/01/21 04:29:53;;;;;;;10.70;3.30;;;;;;;-2.44;69.29;99921.59;84777;1326;23856;-80
2022/01/21 04:32:02;;;;;;;6.50;3.50;;;;;;;-2.43;69.35;99925.17;84816;1327;24684;-76
2022/01/21 04:34:11;;;;;;;4.90;3.00;;;;;;;-2.41;69.34;99921.27;84712;1326;24280;-76
2022/01/21 04:36:20;;;;;;;5.30;2.30;;;;;;;-2.40;69.29;99935.11;84795;1325;22797;-76
2022/01/21 04:38:30;;;;;;;9.50;3.40;;;;;;;-2.40;69.17;99926.23;84699;1326;22652;-75
2022/01/21 04:40:46;;;;;;;5.20;2.10;;;;;;;-2.38;69.29;99924.70;84793;1326;25456;-75
2022/01/21 04:47:51;;;;;;;6.90;2.70;;;;;;;-2.37;69.32;99926.59;84729;1329;25310;-81
2022/01/21 04:50:00;;;;;;;2.40;1.60;;;;;;;-2.36;69.30;99930.37;84764;1322;23254;-79
2022/01/21 04:52:10;;;;;;;3.30;2.10;;;;;;;-2.37;69.35;99930.85;84812;1326;23922;-76
2022/01/21 04:54:22;;;;;;;2.20;1.90;;;;;;;-2.37;69.40;99936.00;84780;1326;22628;-76
2022/01/21 04:56:31;;;;;;;13.40;2.10;;;;;;;-2.35;69.42;99930.71;84785;1321;22831;-76
2022/01/21 04:58:43;;;;;;;5.80;2.50;;;;;;;-2.32;69.55;99935.66;84810;1325;24315;-76
2022/01/21 05:00:52;;;;;;;2.80;2.00;;;;;;;-2.28;69.73;99934.34;84805;1328;25606;-75
2022/01/21 05:03:04;;;;;;;2.80;1.80;;;;;;;-2.26;69.56;99935.56;84759;1326;22611;-75
2022/01/21 05:05:13;;;;;;;3.90;2.30;;;;;;;-2.22;69.63;99936.94;84788;1326;24255;-75
2022/01/21 05:07:27;;;;;;;6.00;1.90;;;;;;;-2.20;69.73;99940.05;84816;1326;24370;-81
2022/01/21 05:09:36;;;;;;;3.40;1.80;;;;;;;-2.19;69.79;99941.75;84811;1325;23538;-80
2022/01/21 05:11:51;;;;;;;6.40;2.10;;;;;;;-2.18;69.50;99943.64;84803;1325;23947;-81
2022/01/21 05:14:13;;;;;;;7.30;2.80;;;;;;;-2.18;69.60;99949.10;84764;1326;24396;-76
2022/01/21 05:16:32;;;;;;;4.10;2.80;;;;;;;-2.19;69.78;99947.05;84801;1327;22635;-76
2022/01/21 05:18:42;;;;;;;6.20;2.60;;;;;;;-2.22;69.90;99951.81;84788;1322;22593;-76
2022/01/21 05:20:51;;;;;;;5.50;2.80;;;;;;;-2.23;69.84;99951.11;84806;1326;22568;-75
2022/01/21 05:23:00;;;;;;;10.00;3.10;;;;;;;-2.23;69.87;99950.44;84860;1322;24268;-81
2022/01/21 05:25:16;;;;;;;6.50;3.70;;;;;;;-2.22;69.99;99948.56;84810;1325;22947;-81
2022/01/21 05:27:29;;;;;;;8.10;3.80;;;;;;;-2.20;70.03;99953.71;84829;1326;22873;-80
2022/01/21 05:29:41;;;;;;;8.20;4.70;;;;;;;-2.18;70.10;99954.73;84827;1327;22602;-81
2022/01/21 05:31:50;;;;;;;13.30;6.40;;;;;;;-2.16;70.07;99956.65;84762;1330;25442;-81
2022/01/21 05:33:59;;;;;;;10.20;4.70;;;;;;;-2.16;70.14;99959.89;84786;1324;22638;-76
2022/01/21 05:36:11;;;;;;;6.10;3.60;;;;;;;-2.16;70.15;99959.22;84812;1326;24230;-76
2022/01/21 05:38:23;;;;;;;7.40;4.20;;;;;;;-2.16;70.06;99958.87;84781;1326;25447;-80
2022/01/21 05:40:36;;;;;;;6.00;3.40;;;;;;;-2.15;70.25;99957.84;84790;1328;24556;-81
2022/01/21 05:42:45;;;;;;;5.20;3.10;;;;;;;-2.16;70.16;99962.47;84838;1325;22593;-76
2022/01/21 05:47:22;;;;;;;7.80;3.40;;;;;;;-2.19;70.21;99966.02;84812;1327;23934;-80
2022/01/21 05:49:33;;;;;;;9.10;3.40;;;;;;;-2.21;70.30;99967.03;84824;1318;22764;-80
2022/01/21 05:51:42;;;;;;;6.40;2.70;;;;;;;-2.24;70.28;99971.79;84758;1323;24249;-81
2022/01/21 05:53:57;;;;;;;9.10;3.30;;;;;;;-2.28;70.28;99966.98;84823;1326;22603;-75
2022/01/21 05:56:09;;;;;;;5.70;2.70;;;;;;;-2.31;70.26;99968.66;84816;1325;22888;-76
2022/01/21 05:58:19;;;;;;;7.20;2.50;;;;;;;-2.36;70.23;99966.91;84804;1326;24273;-81
2022/01/21 06:00:31;;;;;;;7.70;2.80;;;;;;;-2.39;70.35;99973.89;84802;1326;22826;-81
2022/01/21 06:02:40;;;;;;;5.50;2.80;;;;;;;-2.42;70.51;99978.50;84794;1326;22622;-76
2022/01/21 06:04:51;;;;;;;3.70;2.50;;;;;;;-2.43;70.77;99984.62;84805;1326;22597;-76
2022/01/21 06:07:01;;;;;;;8.10;2.20;;;;;;;-2.42;70.84;99977.10;84772;1326;22668;-79
2022/01/21 06:09:14;;;;;;;6.40;3.20;;;;;;;-2.39;71.12;99982.77;84786;1322;22610;-81
2022/01/21 06:11:23;;;;;;;8.90;3.30;;;;;;;-2.36;71.22;99986.73;84769;1327;23092;-80
2022/01/21 06:13:36;;;;;;;19.10;7.60;;;;;;;-2.35;71.14;99982.82;84791;1326;22900;-75
2022/01/21 06:15:46;;;;;;;35.70;12.50;;;;;;;-2.33;71.28;99986.23;84823;1326;23328;-81
2022/01/21 06:17:58;;;;;;;29.90;12.30;;;;;;;-2.31;71.16;99991.20;84784;1326;22597;-81
2022/01/21 06:20:20;;;;;;;41.50;15.90;;;;;;;-2.31;71.06;99997.20;84790;1327;22944;-79
2022/01/21 06:22:35;;;;;;;51.20;19.60;;;;;;;-2.33;71.18;99987.61;84851;1326;22623;-74
2022/01/21 06:24:44;;;;;;;39.30;15.30;;;;;;;-2.36;71.40;99992.02;84807;1324;22591;-75
2022/01/21 06:27:00;;;;;;;;;;;;;;;-2.39;71.42;99992.17;84804;1326;25394;-76
2022/01/21 06:29:12;;;;;;;24.10;10.40;;;;;;;-2.45;71.35;99993.67;84090;1321;1002975;-80
2022/01/21 06:31:24;;;;;;;14.60;7.10;;;;;;;-2.48;71.36;99993.64;84761;1328;22721;-80
2022/01/21 06:33:36;;;;;;;8.10;3.90;;;;;;;-2.51;71.53;99996.51;84819;1326;22835;-76
2022/01/21 06:35:46;;;;;;;13.40;6.10;;;;;;;-2.51;71.82;100010.33;84809;1325;22935;-75
2022/01/21 06:37:55;;;;;;;4.20;3.40;;;;;;;-2.50;71.82;100013.10;84845;1325;22554;-73
2022/01/21 06:40:09;;;;;;;6.50;4.40;;;;;;;-2.46;72.16;100018.09;84794;1326;22655;-73
2022/01/21 06:42:25;;;;;;;6.00;4.00;;;;;;;-2.39;72.16;100020.02;84843;1325;25565;-84
2022/01/21 06:44:35;;;;;;;35.50;12.50;;;;;;;-2.32;72.07;100020.77;84844;1326;22653;-85
2022/01/21 06:46:44;;;;;;;23.70;8.20;;;;;;;-2.28;72.12;100014.63;84836;1325;22605;-80
2022/01/21 06:48:56;;;;;;;21.80;8.20;;;;;;;-2.25;71.97;100019.11;84833;1326;24353;-81
2022/01/21 06:51:06;;;;;;;20.30;7.70;;;;;;;-2.24;72.00;100022.36;84864;1326;22589;-78
2022/01/21 06:53:15;;;;;;;20.40;6.50;;;;;;;-2.24;71.92;100023.56;84796;1325;25613;-73
2022/01/21 06:55:25;;;;;;;18.60;6.80;;;;;;;-2.26;71.96;100024.56;84749;1326;23950;-73
2022/01/21 06:57:38;;;;;;;23.50;10.70;;;;;;;-2.30;71.97;100024.88;84831;1326;22660;-80
2022/01/21 06:59:48;;;;;;;13.60;5.60;;;;;;;-2.33;71.93;100034.59;84807;1324;22601;-78
2022/01/21 07:02:06;;;;;;;14.20;6.00;;;;;;;-2.36;71.97;100024.65;84798;1327;22744;-78
2022/01/21 07:04:24;;;;;;;8.30;3.10;;;;;;;-2.37;71.98;100028.56;84820;1327;22583;-73
2022/01/21 07:06:33;;;;;;;5.00;2.20;;;;;;;-2.37;72.10;100033.02;84733;1326;24247;-74
2022/01/21 07:08:45;;;;;;;5.40;2.50;;;;;;;-2.35;72.03;100038.16;84773;1325;25311;-80
2022/01/21 07:10:58;;;;;;;4.80;2.60;;;;;;;-2.33;72.07;100045.17;84781;1325;24208;-74
2022/01/21 07:13:10;;;;;;;6.30;2.90;;;;;;;-2.29;71.97;100047.27;84591;1328;23638;-79
2022/01/21 07:15:33;;;;;;;8.70;4.10;;;;;;;-2.27;72.00;100046.92;84810;1326;24275;-79
2022/01/21 07:17:49;;;;;;;7.50;4.00;;;;;;;-2.24;71.96;100052.77;84819;1324;22642;-79
2022/01/21 07:20:02;;;;;;;8.20;3.90;;;;;;;-2.21;71.72;100053.65;84785;1328;25470;-75
2022/01/21 07:22:12;;;;;;;11.50;4.70;;;;;;;-2.15;71.74;100056.44;84829;1327;23904;-80
2022/01/21 07:24:25;;;;;;;8.90;3.90;;;;;;;-2.10;71.78;100054.09;84906;1310;24330;-80
2022/01/21 07:26:41;;;;;;;5.40;3.40;;;;;;;-1.96;71.67;100053.34;84690;1319;22625;-74
2022/01/21 07:28:54;;;;;;;7.60;3.30;;;;;;;-1.58;71.83;100054.63;84786;1327;23932;-80
2022/01/21 07:31:06;;;;;;;7.50;2.80;;;;;;;-0.81;71.47;100051.70;84800;1328;24261;-74
2022/01/21 07:33:21;;;;;;;7.00;3.40;;;;;;;0.02;71.60;100052.16;84069;1328;1003538;-75
2022/01/21 07:35:34;;;;;;;7.80;4.40;;;;;;;0.72;70.34;100048.45;84054;1327;1002983;-76
2022/01/21 07:37:46;;;;;;;5.90;3.10;;;;;;;1.42;68.76;100053.45;84682;1324;22857;-80
2022/01/21 07:40:01;;;;;;;5.20;3.20;;;;;;;2.09;67.15;100047.98;84792;1326;25449;-79
2022/01/21 07:42:20;;;;;;;4.60;2.80;;;;;;;2.71;64.72;100043.39;84782;1325;22937;-80
2022/01/21 07:44:33;;;;;;;;;;;;;;;3.26;63.65;100047.89;84795;1327;26580;-81
2022/01/21 07:46:43;;;;;;;3.60;2.00;;;;;;;3.80;62.37;100048.49;84769;1327;22659;-80
2022/01/21 07:48:59;;;;;;;3.60;2.00;;;;;;;4.28;60.62;100049.77;84672;1328;25401;-81
2022/01/21 07:51:14;;;;;;;4.70;2.40;;;;;;;4.65;58.14;100044.77;84781;1330;22627;-78
2022/01/21 07:53:31;;;;;;;5.40;2.50;;;;;;;4.98;57.35;100053.80;84793;1327;22594;-73
2022/01/21 07:56:03;;;;;;;4.70;2.20;;;;;;;5.38;57.90;100050.70;84777;1326;25295;-75
2022/01/21 07:58:36;;;;;;;2.40;2.20;;;;;;;5.81;55.51;100047.65;84784;1323;22605;-79
2022/01/21 08:00:57;;;;;;;6.30;2.80;;;;;;;6.01;52.76;100048.44;84810;1327;25299;-80
2022/01/21 08:03:10;;;;;;;6.70;3.50;;;;;;;6.04;52.11;100050.77;84777;1325;22824;-76
2022/01/21 08:05:34;;;;;;;4.20;3.40;;;;;;;6.03;52.69;100056.16;84757;1326;23913;-75
2022/01/21 08:07:57;;;;;;;5.40;2.80;;;;;;;6.10;52.14;100054.27;84703;1325;22650;-75
2022/01/21 08:10:10;;;;;;;3.20;1.70;;;;;;;6.05;52.99;100053.52;84688;1331;22650;-75
2022/01/21 08:12:23;;;;;;;23.50;4.20;;;;;;;5.93;51.42;100055.89;84811;1328;22687;-75
2022/01/21 08:14:37;;;;;;;4.30;2.10;;;;;;;5.60;50.65;100057.15;84793;1327;22901;-75
2022/01/21 08:16:51;;;;;;;4.50;2.30;;;;;;;5.30;51.37;100059.20;84687;1329;22614;-75
2022/01/21 08:19:07;;;;;;;5.20;3.00;;;;;;;5.23;50.85;100065.05;84822;1328;22592;-79
2022/01/21 08:21:27;;;;;;;5.40;2.70;;;;;;;5.24;50.81;100061.92;84738;1327;22624;-79
2022/01/21 08:23:41;;;;;;;5.10;3.10;;;;;;;5.18;51.31;100070.34;84742;1330;26498;-80
2022/01/21 08:25:55;;;;;;;4.80;2.70;;;;;;;4.86;51.85;100070.30;84790;1328;22612;-80
2022/01/21 08:28:08;;;;;;;6.20;3.20;;;;;;;4.49;52.09;100072.02;84622;1329;22597;-78
2022/01/21 08:30:18;;;;;;;5.50;2.60;;;;;;;4.17;52.31;100071.36;84796;1322;22623;-80
2022/01/21 08:32:32;;;;;;;5.50;2.70;;;;;;;3.90;53.69;100076.99;84737;1329;22727;-79
2022/01/21 08:34:45;;;;;;;4.80;2.40;;;;;;;3.69;53.87;100079.19;84769;1325;22645;-80
2022/01/21 08:37:05;;;;;;;4.80;2.10;;;;;;;3.48;53.48;100078.80;84743;1325;22602;-79
2022/01/21 08:39:28;;;;;;;7.10;2.30;;;;;;;3.18;53.94;100091.95;84851;1327;25443;-80
2022/01/21 08:41:44;;;;;;;4.60;2.40;;;;;;;2.96;54.71;100096.86;84679;1329;22832;-76
2022/01/21 08:43:57;;;;;;;5.00;2.40;;;;;;;2.75;54.40;100096.39;84760;1330;24119;-76
2022/01/21 08:46:11;;;;;;;5.10;2.90;;;;;;;2.54;55.25;100102.80;84691;1329;22625;-76
2022/01/21 08:48:23;;;;;;;9.10;3.50;;;;;;;2.41;55.71;100101.91;84759;1327;23950;-73
2022/01/21 08:50:43;;;;;;;8.30;3.20;;;;;;;2.24;55.49;100109.11;84745;1329;22609;-75
2022/01/21 08:53:10;;;;;;;5.00;2.30;;;;;;;2.04;56.22;100112.19;84629;1329;22609;-78
2022/01/21 08:55:45;;;;;;;3.60;2.00;;;;;;;1.88;56.76;100121.08;84731;1327;22594;-80
2022/01/21 08:58:06;;;;;;;3.10;2.00;;;;;;;1.75;56.99;100120.14;84439;1330;22633;-74
2022/01/21 09:00:23;;;;;;;10.10;3.20;;;;;;;1.65;57.40;100133.77;84419;1334;22645;-79
2022/01/21 09:02:43;;;;;;;5.10;2.30;;;;;;;1.57;57.70;100130.71;84445;1333;24290;-75
2022/01/21 09:04:55;;;;;;;5.10;2.60;;;;;;;1.50;57.82;100131.62;84433;1334;22592;-81
2022/01/21 09:07:24;;;;;;;8.70;2.80;;;;;;;1.41;57.89;100143.52;84459;1329;25254;-80
2022/01/21 09:09:35;;;;;;;5.20;2.50;;;;;;;1.30;58.29;100141.67;83705;1333;1002971;-74
2022/01/21 09:11:48;;;;;;;4.00;2.40;;;;;;;1.20;58.49;100143.95;84729;1329;23956;-74
2022/01/21 09:14:01;;;;;;;5.50;3.60;;;;;;;1.13;58.61;100137.96;84753;1327;23930;-74
2022/01/21 09:16:11;;;;;;;2.70;1.90;;;;;;;1.06;58.85;100140.04;84776;1327;22615;-74
2022/01/21 09:18:25;;;;;;;4.00;2.80;;;;;;;0.95;59.05;100139.90;84775;1327;22598;-75
2022/01/21 09:20:51;;;;;;;5.30;2.90;;;;;;;0.86;59.42;100137.69;84714;1329;22607;-75
2022/01/21 09:23:03;;;;;;;7.20;3.00;;;;;;;0.80;59.65;100140.10;84755;1327;22598;-79
2022/01/21 09:25:17;;;;;;;6.80;3.20;;;;;;;0.77;59.98;100140.98;84732;1329;23884;-76
2022/01/21 09:27:28;;;;;;;10.80;4.20;;;;;;;0.70;59.72;100141.84;84790;1330;22619;-80
2022/01/21 09:29:45;;;;;;;6.50;3.10;;;;;;;0.67;60.16;100143.39;84705;1328;22590;-74
2022/01/21 09:31:57;;;;;;;7.50;3.70;;;;;;;0.66;60.35;100141.67;84788;1327;24291;-75
2022/01/21 09:34:16;;;;;;;8.30;3.30;;;;;;;0.66;60.42;100142.02;84742;1326;25442;-81
2022/01/21 09:36:29;;;;;;;6.70;3.60;;;;;;;0.63;60.24;100139.63;84770;1327;23988;-82
2022/01/21 09:38:46;;;;;;;8.40;3.40;;;;;;;0.57;60.58;100148.90;84045;1329;1003871;-82
2022/01/21 09:41:02;;;;;;;6.20;3.40;;;;;;;0.57;60.76;100144.26;84687;1329;22681;-80
2022/01/21 09:43:13;;;;;;;4.90;3.20;;;;;;;0.57;60.60;100142.20;84707;1330;22863;-77
2022/01/21 09:46:34;;;;;;;4.20;2.90;;;;;;;0.54;60.32;100147.02;84640;1329;22774;-75
2022/01/21 09:49:25;;;;;;;3.90;2.80;;;;;;;0.47;60.42;100139.98;84630;1330;22946;-80
2022/01/21 09:52:17;;;;;;;;;;;;;;;0.47;60.88;100142.22;84712;1329;25353;-76
2022/01/21 09:54:27;;;;;;;;;;;;;;;0.50;61.13;100141.02;84742;1329;22580;-74
2022/01/21 09:56:51;;;;;;;3.70;2.10;;;;;;;0.54;60.60;100137.56;84779;1327;22607;-75
2022/01/21 09:59:06;;;;;;;2.70;2.10;;;;;;;0.53;60.34;100141.18;84699;1332;26642;-79
2022/01/21 10:01:23;;;;;;;5.60;2.60;;;;;;;0.54;60.53;100141.17;84777;1330;22669;-79
2022/01/21 10:03:37;;;;;;;12.40;2.50;;;;;;;0.56;60.85;100130.54;84727;1330;22722;-78
2022/01/21 10:05:52;;;;;;;6.00;3.00;;;;;;;0.60;60.92;100122.48;84799;1330;22646;-77
2022/01/21 10:08:07;;;;;;;7.20;3.30;;;;;;;0.63;60.44;100120.23;84779;1325;22646;-76
2022/01/21 10:10:19;;;;;;;7.30;2.10;;;;;;;0.72;60.12;100109.91;84810;1327;22610;-73
2022/01/21 10:12:32;;;;;;;4.70;2.30;;;;;;;0.99;60.82;100113.77;84769;1327;22614;-74
2022/01/21 10:14:52;;;;;;;4.40;1.80;;;;;;;1.58;60.81;100113.69;84776;1330;25399;-76
2022/01/21 10:17:07;;;;;;;7.20;2.50;;;;;;;2.25;58.47;100114.27;84763;1325;23143;-78
2022/01/21 10:19:29;;;;;;;4.50;2.20;;;;;;;2.79;59.01;100117.22;84789;1327;22722;-76
2022/01/21 10:21:43;;;;;;;2.80;2.10;;;;;;;3.44;57.13;100105.23;84620;1330;23103;-75
2022/01/21 10:23:58;;;;;;;5.40;2.40;;;;;;;3.84;55.58;100100.02;84698;1332;22598;-76
2022/01/21 10:26:16;;;;;;;4.40;2.10;;;;;;;4.24;56.00;100098.88;84605;1330;22700;-80
2022/01/21 10:28:31;;;;;;;2.70;1.60;;;;;;;4.84;54.47;100093.50;84691;1329;23975;-79
2022/01/21 10:30:44;;;;;;;3.50;1.40;;;;;;;5.10;52.91;100099.73;84751;1327;24231;-79
2022/01/21 10:32:57;;;;;;;3.20;1.80;;;;;;;5.15;51.60;100092.17;84749;1327;22594;-79
2022/01/21 10:36:02;;;;;;;2.70;1.70;;;;;;;5.15;52.63;100098.08;84689;1329;23303;-79
2022/01/21 10:39:01;;;;;;;4.30;1.70;;;;;;;4.83;51.61;100090.38;84795;1327;22597;-76
2022/01/21 10:42:32;;;;;;;4.70;2.70;;;;;;;4.39;51.72;100091.71;77886;1330;9552570;-75
2022/01/21 10:45:49;;;;;;;6.10;2.50;;;;;;;3.94;52.78;100091.23;84663;1332;22743;-79
2022/01/21 10:52:49;;;;;;;4.80;2.30;;;;;;;3.07;52.65;100092.95;84692;1332;22737;-77
2022/01/21 10:56:01;;;;;;;5.90;2.40;;;;;;;2.68;53.73;100100.96;84798;1327;22694;-80
2022/01/21 11:02:57;;;;;;;6.30;2.50;;;;;;;2.01;54.71;100086.92;84742;1329;22623;-75
2022/01/21 11:05:40;;;;;;;4.60;2.00;;;;;;;1.87;55.27;100092.53;84636;1332;25658;-80
2022/01/21 11:09:20;;;;;;;6.90;3.20;;;;;;;1.74;55.94;100102.60;84672;1333;23974;-74
2022/01/21 11:17:48;;;;;;;;;;;;;;;;;;;;;
2022/01/21 11:25:23;;;;;;;5.90;2.40;;;;;;;1.36;56.90;100103.68;83435;1345;22644;-76
2022/01/21 11:32:11;;;;;;;;;;;;;;;;;;;;;
2022/01/21 11:36:05;;;;;;;7.00;2.50;;;;;;;1.43;56.51;100111.37;83863;1336;1002855;-80
2022/01/21 11:39:20;;;;;;;;;;;;;;;;;;;;;
2022/01/21 11:42:39;;;;;;;7.10;2.90;;;;;;;1.46;56.73;100118.05;84341;1336;22616;-81
2022/01/21 11:54:55;;;;;;;9.30;4.20;;;;;;;1.58;57.37;100122.29;84032;1344;22618;-74